createdAt,value
2017-09-23T00:00:33.751Z,109.7
2017-09-23T00:01:34.548Z,105.7
2017-09-23T00:02:35.693Z,99.6
2017-09-23T00:03:36.439Z,99.9
2017-09-23T00:04:37.117Z,105.3
2017-09-23T00:05:37.926Z,97.8
2017-09-23T00:06:38.734Z,102.3
2017-09-23T00:07:39.784Z,107.1
2017-09-23T00:08:40.555Z,103.2
2017-09-23T00:09:41.292Z,102.7
2017-09-23T00:10:42.036Z,102.7
2017-09-23T00:11:42.774Z,101.0
2017-09-23T00:12:43.975Z,96.6
2017-09-23T00:13:44.716Z,103.0
2017-09-23T00:14:45.449Z,101.2
2017-09-23T00:15:46.179Z,104.2
2017-09-23T00:16:46.923Z,110.9
2017-09-23T00:17:47.672Z,109.3
2017-09-23T00:18:48.724Z,114.4
2017-09-23T00:19:49.553Z,113.3
2017-09-23T00:20:50.274Z,111.3
2017-09-23T00:21:51.016Z,106.5
2017-09-23T00:22:51.823Z,112.4
2017-09-23T00:23:52.854Z,118.1
2017-09-23T00:24:53.592Z,113.0
2017-09-23T00:25:54.334Z,117.1
2017-09-23T00:26:55.134Z,121.9
2017-09-23T00:27:55.873Z,117.3
2017-09-23T00:28:56.798Z,118.0
2017-09-23T00:29:57.542Z,118.7
2017-09-23T00:30:58.293Z,118.3
2017-09-23T00:31:59.084Z,117.8
2017-09-23T00:32:59.814Z,117.4
2017-09-23T00:34:00.799Z,119.1
2017-09-23T00:35:01.584Z,117.4
2017-09-23T00:36:02.328Z,123.6
2017-09-23T00:37:03.062Z,127.3
2017-09-23T00:38:03.783Z,116.8
2017-09-23T00:39:04.517Z,124.0
2017-09-23T00:40:05.244Z,123.6
2017-09-23T00:41:06.233Z,117.6
2017-09-23T00:42:06.976Z,122.6
2017-09-23T00:43:08.245Z,127.0
2017-09-23T00:44:09.578Z,125.5
2017-09-23T00:45:10.271Z,124.3
2017-09-23T00:46:12.366Z,122.0
2017-09-23T00:47:13.355Z,121.8
2017-09-23T00:48:14.157Z,128.0
2017-09-23T00:49:14.992Z,117.8
2017-09-23T00:50:15.712Z,123.1
2017-09-23T00:51:16.526Z,138.9
2017-09-23T00:52:17.309Z,142.0
2017-09-23T00:53:18.444Z,144.6
2017-09-23T00:54:19.174Z,142.0
2017-09-23T00:55:19.903Z,139.8
2017-09-23T00:56:20.701Z,141.4
2017-09-23T00:57:21.493Z,147.6
2017-09-23T00:58:22.524Z,140.7
2017-09-23T00:59:23.343Z,142.7
2017-09-23T01:00:24.075Z,135.5
2017-09-23T01:01:24.814Z,131.2
2017-09-23T01:02:25.548Z,121.0
2017-09-23T01:03:26.683Z,119.6
2017-09-23T01:04:27.413Z,137.2
2017-09-23T01:05:28.177Z,134.6
2017-09-23T01:06:28.926Z,133.4
2017-09-23T01:07:29.744Z,142.7
2017-09-23T01:08:30.783Z,143.2
2017-09-23T01:09:31.515Z,132.1
2017-09-23T01:10:32.314Z,138.7
2017-09-23T01:11:33.081Z,136.3
2017-09-23T01:12:33.933Z,135.8
2017-09-23T01:13:34.966Z,140.3
2017-09-23T01:14:35.703Z,135.2
2017-09-23T01:15:36.443Z,139.0
2017-09-23T01:16:37.167Z,151.1
2017-09-23T01:17:37.911Z,154.4
2017-09-23T01:18:39.123Z,154.1
2017-09-23T01:19:39.858Z,161.6
2017-09-23T01:20:40.666Z,138.6
2017-09-23T01:21:41.453Z,152.6
2017-09-23T01:22:42.193Z,148.3
2017-09-23T01:23:43.283Z,147.8
2017-09-23T01:24:44.023Z,156.9
2017-09-23T01:25:44.752Z,138.5
2017-09-23T01:26:45.484Z,151.9
2017-09-23T01:27:46.222Z,152.3
2017-09-23T01:28:47.251Z,152.7
2017-09-23T01:29:47.993Z,144.1
2017-09-23T01:30:49.438Z,150.9
2017-09-23T01:31:50.491Z,154.2
2017-09-23T01:32:51.975Z,153.4
2017-09-23T01:33:53.386Z,154.4
2017-09-23T01:34:56.082Z,158.5
2017-09-23T01:35:57.866Z,157.7
2017-09-23T01:36:59.494Z,147.6
2017-09-23T01:38:00.175Z,163.8
2017-09-23T01:39:01.271Z,157.9
2017-09-23T01:40:02.004Z,155.7
2017-09-23T01:41:02.733Z,161.2
2017-09-23T01:42:03.464Z,149.5
2017-09-23T01:43:04.205Z,155.3
2017-09-23T01:44:05.001Z,165.8
2017-09-23T01:45:05.993Z,154.5
2017-09-23T01:46:06.756Z,165.4
2017-09-23T01:47:07.568Z,165.5
2017-09-23T01:48:08.306Z,157.8
2017-09-23T01:49:09.104Z,160.5
2017-09-23T01:50:10.099Z,161.5
2017-09-23T01:51:10.892Z,162.0
2017-09-23T01:52:11.649Z,162.4
2017-09-23T01:53:12.443Z,161.6
2017-09-23T01:54:13.173Z,162.9
2017-09-23T01:55:14.204Z,168.3
2017-09-23T01:56:14.936Z,163.3
2017-09-23T01:57:15.663Z,166.7
2017-09-23T01:58:16.425Z,168.3
2017-09-23T01:59:17.151Z,158.0
2017-09-23T02:00:18.335Z,164.6
2017-09-23T02:01:19.123Z,158.7
2017-09-23T02:02:19.854Z,160.9
2017-09-23T02:03:20.666Z,154.0
2017-09-23T02:04:21.455Z,159.8
2017-09-23T02:05:22.606Z,160.1
2017-09-23T02:06:23.335Z,161.7
2017-09-23T02:07:24.077Z,160.5
2017-09-23T02:08:24.868Z,164.0
2017-09-23T02:09:25.601Z,156.8
2017-09-23T02:10:26.746Z,165.9
2017-09-23T02:11:27.562Z,168.6
2017-09-23T02:12:28.237Z,164.0
2017-09-23T02:13:29.054Z,163.2
2017-09-23T02:14:29.848Z,159.0
2017-09-23T02:15:30.589Z,172.6
2017-09-23T02:16:31.774Z,164.4
2017-09-23T02:17:32.505Z,159.3
2017-09-23T02:18:33.228Z,164.9
2017-09-23T02:19:33.969Z,167.3
2017-09-23T02:20:34.747Z,179.2
2017-09-23T02:21:35.550Z,166.8
2017-09-23T02:22:36.264Z,169.2
2017-09-23T02:23:37.003Z,169.7
2017-09-23T02:24:37.743Z,170.3
2017-09-23T02:25:38.480Z,168.0
2017-09-23T02:26:39.669Z,170.2
2017-09-23T02:27:40.411Z,163.6
2017-09-23T02:28:41.142Z,180.1
2017-09-23T02:29:41.889Z,180.6
2017-09-23T02:30:42.624Z,177.6
2017-09-23T02:31:43.675Z,178.2
2017-09-23T02:32:44.513Z,174.9
2017-09-23T02:33:45.304Z,177.0
2017-09-23T02:34:46.039Z,179.3
2017-09-23T02:35:46.773Z,178.4
2017-09-23T02:36:47.805Z,181.0
2017-09-23T02:37:48.599Z,180.3
2017-09-23T02:38:49.325Z,185.6
2017-09-23T02:39:50.146Z,170.8
2017-09-23T02:40:50.858Z,180.9
2017-09-23T02:41:51.845Z,185.0
2017-09-23T02:42:52.635Z,171.0
2017-09-23T02:43:53.453Z,178.3
2017-09-23T02:44:54.188Z,170.7
2017-09-23T02:45:55.006Z,175.3
2017-09-23T02:46:56.154Z,179.7
2017-09-23T02:47:56.889Z,176.6
2017-09-23T02:48:57.670Z,174.8
2017-09-23T02:49:58.476Z,181.6
2017-09-23T02:50:59.212Z,177.3
2017-09-23T02:51:59.977Z,170.5
2017-09-23T02:53:00.757Z,180.7
2017-09-23T02:54:01.574Z,186.8
2017-09-23T02:55:02.654Z,170.4
2017-09-23T02:56:03.465Z,181.0
2017-09-23T02:57:04.208Z,184.8
2017-09-23T02:58:04.925Z,180.0
2017-09-23T02:59:05.648Z,191.0
2017-09-23T03:00:06.741Z,187.4
2017-09-23T03:01:07.478Z,176.4
2017-09-23T03:02:08.285Z,181.8
2017-09-23T03:03:09.079Z,188.3
2017-09-23T03:04:09.847Z,197.7
2017-09-23T03:05:10.615Z,210.0
2017-09-23T03:06:11.404Z,199.0
2017-09-23T03:07:12.180Z,191.8
2017-09-23T03:08:12.924Z,193.5
2017-09-23T03:09:13.749Z,191.7
2017-09-23T03:10:14.483Z,184.7
2017-09-23T03:11:15.287Z,197.3
2017-09-23T03:12:17.789Z,203.6
2017-09-23T03:13:20.069Z,200.6
2017-09-23T03:14:20.230Z,212.6
2017-09-23T03:15:22.528Z,227.9
2017-09-23T03:16:23.744Z,219.2
2017-09-23T03:17:26.285Z,199.8
2017-09-23T03:18:27.026Z,206.7
2017-09-23T03:19:28.170Z,197.7
2017-09-23T03:20:28.864Z,198.9
2017-09-23T03:21:29.637Z,197.7
2017-09-23T03:22:30.721Z,195.5
2017-09-23T03:23:31.454Z,206.5
2017-09-23T03:24:32.180Z,208.6
2017-09-23T03:25:32.916Z,209.0
2017-09-23T03:26:33.653Z,213.9
2017-09-23T03:27:34.456Z,212.6
2017-09-23T03:28:35.190Z,206.2
2017-09-23T03:29:35.926Z,196.5
2017-09-23T03:30:37.031Z,195.4
2017-09-23T03:31:37.796Z,199.4
2017-09-23T03:32:38.540Z,212.7
2017-09-23T03:33:39.366Z,221.3
2017-09-23T03:34:40.100Z,206.1
2017-09-23T03:35:41.191Z,210.7
2017-09-23T03:36:41.927Z,205.3
2017-09-23T03:37:42.736Z,225.0
2017-09-23T03:38:43.520Z,216.9
2017-09-23T03:39:44.262Z,211.0
2017-09-23T03:40:45.428Z,212.7
2017-09-23T03:41:46.215Z,219.5
2017-09-23T03:42:47.034Z,217.6
2017-09-23T03:43:47.814Z,214.1
2017-09-23T03:44:48.549Z,216.5
2017-09-23T03:45:49.754Z,207.3
2017-09-23T03:46:50.487Z,212.0
2017-09-23T03:47:51.265Z,211.9
2017-09-23T03:48:52.074Z,219.7
2017-09-23T03:49:52.831Z,218.6
2017-09-23T03:50:54.026Z,220.6
2017-09-23T03:51:54.821Z,210.5
2017-09-23T03:52:55.565Z,193.2
2017-09-23T03:53:56.362Z,204.0
2017-09-23T03:54:57.101Z,219.9
2017-09-23T03:55:58.041Z,205.4
2017-09-23T03:56:58.774Z,212.8
2017-09-23T03:57:59.495Z,218.0
2017-09-23T03:59:00.294Z,219.7
2017-09-23T04:00:01.024Z,221.3
2017-09-23T04:01:02.158Z,217.4
2017-09-23T04:02:02.899Z,204.1
2017-09-23T04:03:03.669Z,214.7
2017-09-23T04:04:04.477Z,215.0
2017-09-23T04:05:05.286Z,210.9
2017-09-23T04:06:07.367Z,209.8
2017-09-23T04:07:09.593Z,211.2
2017-09-23T04:08:09.800Z,217.4
2017-09-23T04:09:10.571Z,213.8
2017-09-23T04:10:11.315Z,203.6
2017-09-23T04:11:12.420Z,198.4
2017-09-23T04:12:13.149Z,195.7
2017-09-23T04:13:13.971Z,210.4
2017-09-23T04:14:14.730Z,197.2
2017-09-23T04:15:15.465Z,195.8
2017-09-23T04:16:16.132Z,204.6
2017-09-23T04:17:16.865Z,193.5
2017-09-23T04:18:17.672Z,190.7
2017-09-23T04:19:18.779Z,192.5
2017-09-23T04:20:19.515Z,185.2
2017-09-23T04:21:20.240Z,193.8
2017-09-23T04:22:20.980Z,195.1
2017-09-23T04:23:21.712Z,183.6
2017-09-23T04:24:22.846Z,186.5
2017-09-23T04:25:23.581Z,202.6
2017-09-23T04:26:24.312Z,183.6
2017-09-23T04:27:25.065Z,190.4
2017-09-23T04:28:25.790Z,203.4
2017-09-23T04:29:26.542Z,199.7
2017-09-23T04:30:27.283Z,187.3
2017-09-23T04:31:28.087Z,188.4
2017-09-23T04:32:28.824Z,202.0
2017-09-23T04:33:29.552Z,182.7
2017-09-23T04:34:30.582Z,201.0
2017-09-23T04:35:31.413Z,196.9
2017-09-23T04:36:32.201Z,174.9
2017-09-23T04:37:32.944Z,183.7
2017-09-23T04:38:33.675Z,181.5
2017-09-23T04:39:34.405Z,160.3
2017-09-23T04:40:35.147Z,178.0
2017-09-23T04:41:35.960Z,203.5
2017-09-23T04:42:36.945Z,172.0
2017-09-23T04:43:37.671Z,179.4
2017-09-23T04:44:38.420Z,179.5
2017-09-23T04:45:39.198Z,193.5
2017-09-23T04:46:39.925Z,183.1
2017-09-23T04:47:41.066Z,182.8
2017-09-23T04:48:41.866Z,182.6
2017-09-23T04:49:42.604Z,175.8
2017-09-23T04:50:43.421Z,172.1
2017-09-23T04:51:44.144Z,180.2
2017-09-23T04:52:45.043Z,186.5
2017-09-23T04:53:45.844Z,178.3
2017-09-23T04:54:46.585Z,181.9
2017-09-23T04:55:47.312Z,183.1
2017-09-23T04:56:48.047Z,177.5
2017-09-23T04:57:49.126Z,179.8
2017-09-23T04:58:49.872Z,193.1
2017-09-23T04:59:50.542Z,190.9
2017-09-23T05:00:51.264Z,193.2
2017-09-23T05:01:52.063Z,189.7
2017-09-23T05:02:53.122Z,186.6
2017-09-23T05:03:53.856Z,179.3
2017-09-23T05:04:54.652Z,180.7
2017-09-23T05:05:55.445Z,181.6
2017-09-23T05:06:56.178Z,198.1
2017-09-23T05:07:57.235Z,179.8
2017-09-23T05:08:57.969Z,189.3
2017-09-23T05:09:58.759Z,200.1
2017-09-23T05:10:59.490Z,187.7
2017-09-23T05:12:00.232Z,190.7
2017-09-23T05:13:01.365Z,191.3
2017-09-23T05:14:02.101Z,202.1
2017-09-23T05:15:02.834Z,189.9
2017-09-23T05:16:03.566Z,195.2
2017-09-23T05:17:04.357Z,195.2
2017-09-23T05:18:05.492Z,204.4
2017-09-23T05:19:06.246Z,200.5
2017-09-23T05:20:06.986Z,204.4
2017-09-23T05:21:07.712Z,199.1
2017-09-23T05:22:08.452Z,209.4
2017-09-23T05:23:09.423Z,206.5
2017-09-23T05:24:10.233Z,207.3
2017-09-23T05:25:10.972Z,212.8
2017-09-23T05:26:11.732Z,225.2
2017-09-23T05:27:12.528Z,226.8
2017-09-23T05:28:13.621Z,209.4
2017-09-23T05:29:14.348Z,207.3
2017-09-23T05:30:15.097Z,205.9
2017-09-23T05:31:15.919Z,199.6
2017-09-23T05:32:16.675Z,208.5
2017-09-23T05:33:17.810Z,218.8
2017-09-23T05:34:18.611Z,232.8
2017-09-23T05:35:19.447Z,214.3
2017-09-23T05:36:20.234Z,194.8
2017-09-23T05:37:21.042Z,193.0
2017-09-23T05:38:22.122Z,205.8
2017-09-23T05:39:23.208Z,210.2
2017-09-23T05:40:23.872Z,226.8
2017-09-23T05:41:24.702Z,217.4
2017-09-23T05:42:25.435Z,205.2
2017-09-23T05:43:26.494Z,200.2
2017-09-23T05:44:27.852Z,209.0
2017-09-23T05:45:29.074Z,212.1
2017-09-23T05:46:30.440Z,210.8
2017-09-23T05:47:31.316Z,212.2
2017-09-23T05:48:33.101Z,209.9
2017-09-23T05:49:34.660Z,202.1
2017-09-23T05:50:35.361Z,204.6
2017-09-23T05:51:36.148Z,206.5
2017-09-23T05:52:36.894Z,213.6
2017-09-23T05:53:37.886Z,218.1
2017-09-23T05:54:38.650Z,214.1
2017-09-23T05:55:39.453Z,212.8
2017-09-23T05:56:40.262Z,202.7
2017-09-23T05:57:40.995Z,214.6
2017-09-23T05:58:42.090Z,225.1
2017-09-23T05:59:42.882Z,212.4
2017-09-23T06:00:43.634Z,208.2
2017-09-23T06:01:44.444Z,223.8
2017-09-23T06:02:45.194Z,222.7
2017-09-23T06:03:46.253Z,215.1
2017-09-23T06:04:46.982Z,206.4
2017-09-23T06:05:47.723Z,201.8
2017-09-23T06:06:48.549Z,208.9
2017-09-23T06:07:49.273Z,212.1
2017-09-23T06:08:50.352Z,227.7
2017-09-23T06:09:51.095Z,219.3
2017-09-23T06:10:51.831Z,229.5
2017-09-23T06:11:52.572Z,225.6
2017-09-23T06:12:53.313Z,224.4
2017-09-23T06:13:54.437Z,230.1
2017-09-23T06:14:55.260Z,228.7
2017-09-23T06:15:56.026Z,225.3
2017-09-23T06:16:56.735Z,230.0
2017-09-23T06:17:57.475Z,214.0
2017-09-23T06:18:58.303Z,203.8
2017-09-23T06:19:59.512Z,188.1
2017-09-23T06:21:00.247Z,197.1
2017-09-23T06:22:00.994Z,195.8
2017-09-23T06:23:01.803Z,198.6
2017-09-23T06:24:02.572Z,205.0
2017-09-23T06:25:03.624Z,208.2
2017-09-23T06:26:04.373Z,198.1
2017-09-23T06:27:05.170Z,214.1
2017-09-23T06:28:05.924Z,219.1
2017-09-23T06:29:06.731Z,216.3
2017-09-23T06:30:07.485Z,206.1
2017-09-23T06:31:08.676Z,200.3
2017-09-23T06:32:09.447Z,200.3
2017-09-23T06:33:10.275Z,199.9
2017-09-23T06:34:11.014Z,201.7
2017-09-23T06:35:11.836Z,200.5
2017-09-23T06:36:13.044Z,207.0
2017-09-23T06:37:13.842Z,209.1
2017-09-23T06:38:14.593Z,201.0
2017-09-23T06:39:15.386Z,216.1
2017-09-23T06:40:16.195Z,205.2
2017-09-23T06:41:17.240Z,204.9
2017-09-23T06:42:17.952Z,211.7
2017-09-23T06:43:18.738Z,199.4
2017-09-23T06:44:19.477Z,199.1
2017-09-23T06:45:20.268Z,200.3
2017-09-23T06:46:21.202Z,211.6
2017-09-23T06:47:21.950Z,196.4
2017-09-23T06:48:22.686Z,183.1
2017-09-23T06:49:23.437Z,183.8
2017-09-23T06:50:24.199Z,188.9
2017-09-23T06:51:25.290Z,187.7
2017-09-23T06:52:26.028Z,179.7
2017-09-23T06:53:26.747Z,184.2
2017-09-23T06:54:27.485Z,183.8
2017-09-23T06:55:28.280Z,190.0
2017-09-23T06:56:29.383Z,181.3
2017-09-23T06:57:30.124Z,183.1
2017-09-23T06:58:30.936Z,184.8
2017-09-23T06:59:31.663Z,198.5
2017-09-23T07:00:32.466Z,190.6
2017-09-23T07:01:33.508Z,187.8
2017-09-23T07:02:34.246Z,181.1
2017-09-23T07:03:35.004Z,192.6
2017-09-23T07:04:35.787Z,181.5
2017-09-23T07:05:36.530Z,180.5
2017-09-23T07:06:37.745Z,183.5
2017-09-23T07:07:38.496Z,173.6
2017-09-23T07:08:39.245Z,173.3
2017-09-23T07:09:39.985Z,177.8
2017-09-23T07:10:40.727Z,187.5
2017-09-23T07:11:41.540Z,185.0
2017-09-23T07:12:42.558Z,172.8
2017-09-23T07:13:43.351Z,170.5
2017-09-23T07:14:44.087Z,174.0
2017-09-23T07:15:44.826Z,187.4
2017-09-23T07:16:45.565Z,184.8
2017-09-23T07:17:46.556Z,178.8
2017-09-23T07:18:47.291Z,180.0
2017-09-23T07:19:48.032Z,188.8
2017-09-23T07:20:48.775Z,186.0
2017-09-23T07:21:49.511Z,185.1
2017-09-23T07:22:50.657Z,179.4
2017-09-23T07:23:51.405Z,203.4
2017-09-23T07:24:52.158Z,200.1
2017-09-23T07:25:52.978Z,205.5
2017-09-23T07:26:53.789Z,202.1
2017-09-23T07:27:54.871Z,205.9
2017-09-23T07:28:55.617Z,200.0
2017-09-23T07:29:56.415Z,200.8
2017-09-23T07:30:57.147Z,212.6
2017-09-23T07:31:57.895Z,186.3
2017-09-23T07:32:59.061Z,183.8
2017-09-23T07:33:59.805Z,172.2
2017-09-23T07:35:00.546Z,167.2
2017-09-23T07:36:01.296Z,175.6
2017-09-23T07:37:02.044Z,174.8
2017-09-23T07:38:03.193Z,166.0
2017-09-23T07:39:03.933Z,164.2
2017-09-23T07:40:04.656Z,175.0
2017-09-23T07:41:05.406Z,183.1
2017-09-23T07:42:06.231Z,184.6
2017-09-23T07:43:07.246Z,188.6
2017-09-23T07:44:08.031Z,179.0
2017-09-23T07:45:08.778Z,172.6
2017-09-23T07:46:09.561Z,173.8
2017-09-23T07:47:10.302Z,173.7
2017-09-23T07:48:11.450Z,170.1
2017-09-23T07:49:12.219Z,165.8
2017-09-23T07:50:12.905Z,168.1
2017-09-23T07:51:13.638Z,166.6
2017-09-23T07:52:14.383Z,164.2
2017-09-23T07:53:15.112Z,164.0
2017-09-23T07:54:15.850Z,162.5
2017-09-23T07:55:17.032Z,163.9
2017-09-23T07:56:17.779Z,156.4
2017-09-23T07:57:18.474Z,155.4
2017-09-23T07:58:19.262Z,150.0
2017-09-23T07:59:20.000Z,144.0
2017-09-23T08:00:21.013Z,137.4
2017-09-23T08:01:21.754Z,139.1
2017-09-23T08:02:22.501Z,136.6
2017-09-23T08:03:23.237Z,136.9
2017-09-23T08:04:23.983Z,132.8
2017-09-23T08:05:25.075Z,136.2
2017-09-23T08:06:25.825Z,132.3
2017-09-23T08:07:26.625Z,128.5
2017-09-23T08:08:27.394Z,126.6
2017-09-23T08:09:28.140Z,126.4
2017-09-23T08:10:29.181Z,124.5
2017-09-23T08:11:29.932Z,120.0
2017-09-23T08:12:30.672Z,123.5
2017-09-23T08:13:31.424Z,119.7
2017-09-23T08:14:32.159Z,118.3
2017-09-23T08:15:33.304Z,115.1
2017-09-23T08:16:34.112Z,115.4
2017-09-23T08:17:34.847Z,115.2
2017-09-23T08:18:35.595Z,112.0
2017-09-23T08:19:36.349Z,111.7
2017-09-23T08:20:37.088Z,113.1
2017-09-23T08:21:37.823Z,108.8
2017-09-23T08:22:38.563Z,105.0
2017-09-23T08:23:39.376Z,102.1
2017-09-23T08:24:40.112Z,100.6
2017-09-23T08:25:40.859Z,100.7
2017-09-23T08:26:41.608Z,100.1
2017-09-23T08:27:42.355Z,98.6
2017-09-23T08:28:43.110Z,98.5
2017-09-23T08:29:44.295Z,101.5
2017-09-23T08:30:45.118Z,94.1
2017-09-23T08:31:45.862Z,90.6
2017-09-23T08:32:46.606Z,89.2
2017-09-23T08:33:47.341Z,87.8
2017-09-23T08:34:48.085Z,85.5
2017-09-23T08:35:49.242Z,87.1
2017-09-23T08:36:50.018Z,83.9
2017-09-23T08:37:50.817Z,82.1
2017-09-23T08:38:51.548Z,80.5
2017-09-23T08:39:52.360Z,79.7
2017-09-23T08:40:53.096Z,82.8
2017-09-23T08:41:54.238Z,77.6
2017-09-23T08:42:55.058Z,74.8
2017-09-23T08:43:55.875Z,75.1
2017-09-23T08:44:56.607Z,71.9
2017-09-23T08:45:57.349Z,73.8
2017-09-23T08:46:58.454Z,74.1
2017-09-23T08:47:59.236Z,72.5
2017-09-23T08:48:59.983Z,73.3
2017-09-23T08:50:00.769Z,71.2
2017-09-23T08:51:01.611Z,72.6
2017-09-23T08:52:02.351Z,72.7
2017-09-23T08:53:03.090Z,73.0
2017-09-23T08:54:04.245Z,72.8
2017-09-23T08:55:04.972Z,74.1
2017-09-23T08:56:05.715Z,71.6
2017-09-23T08:57:06.450Z,72.9
2017-09-23T08:58:07.202Z,71.3
2017-09-23T08:59:08.257Z,72.8
2017-09-23T09:00:09.065Z,71.9
2017-09-23T09:01:09.866Z,71.5
2017-09-23T09:02:10.605Z,70.1
2017-09-23T09:03:11.338Z,68.8
2017-09-23T09:04:12.572Z,69.7
2017-09-23T09:05:13.323Z,71.4
2017-09-23T09:06:14.146Z,69.6
2017-09-23T09:07:14.895Z,68.3
2017-09-23T09:08:15.690Z,66.7
2017-09-23T09:09:16.889Z,68.3
2017-09-23T09:10:17.590Z,65.0
2017-09-23T09:11:18.383Z,69.4
2017-09-23T09:12:19.195Z,66.9
2017-09-23T09:13:19.936Z,68.0
2017-09-23T09:14:21.105Z,68.8
2017-09-23T09:15:21.846Z,66.8
2017-09-23T09:16:22.676Z,67.8
2017-09-23T09:17:23.420Z,66.3
2017-09-23T09:18:24.153Z,70.4
2017-09-23T09:19:24.975Z,70.7
2017-09-23T09:20:25.853Z,69.6
2017-09-23T09:21:26.634Z,69.5
2017-09-23T09:22:27.431Z,72.8
2017-09-23T09:23:28.168Z,70.2
2017-09-23T09:24:28.914Z,72.7
2017-09-23T09:25:30.006Z,72.1
2017-09-23T09:26:30.734Z,70.9
2017-09-23T09:27:31.471Z,71.2
2017-09-23T09:28:32.193Z,70.8
2017-09-23T09:29:32.933Z,69.7
2017-09-23T09:30:33.978Z,71.2
2017-09-23T09:31:34.706Z,74.4
2017-09-23T09:32:35.454Z,67.5
2017-09-23T09:33:36.230Z,69.6
2017-09-23T09:34:36.999Z,70.6
2017-09-23T09:35:38.091Z,70.0
2017-09-23T09:36:38.834Z,70.7
2017-09-23T09:37:39.663Z,72.2
2017-09-23T09:38:40.447Z,70.1
2017-09-23T09:39:41.194Z,65.1
2017-09-23T09:40:42.344Z,64.8
2017-09-23T09:41:43.021Z,66.7
2017-09-23T09:42:43.752Z,64.3
2017-09-23T09:43:44.510Z,69.0
2017-09-23T09:44:45.286Z,67.8
2017-09-23T09:45:46.462Z,68.4
2017-09-23T09:46:47.204Z,67.3
2017-09-23T09:47:47.944Z,67.3
2017-09-23T09:48:48.673Z,67.6
2017-09-23T09:49:49.442Z,67.0
2017-09-23T09:50:50.531Z,71.1
2017-09-23T09:51:51.285Z,67.8
2017-09-23T09:52:52.030Z,67.9
2017-09-23T09:53:52.824Z,66.5
2017-09-23T09:54:53.629Z,68.4
2017-09-23T09:55:54.674Z,68.6
2017-09-23T09:56:55.406Z,71.1
2017-09-23T09:57:56.145Z,70.8
2017-09-23T09:58:56.945Z,72.1
2017-09-23T09:59:57.708Z,71.4
2017-09-23T10:00:58.494Z,72.8
2017-09-23T10:01:59.287Z,71.3
2017-09-23T10:03:00.495Z,69.9
2017-09-23T10:04:01.245Z,70.7
2017-09-23T10:05:02.065Z,68.1
2017-09-23T10:06:02.799Z,69.5
2017-09-23T10:07:03.540Z,71.6
2017-09-23T10:08:04.627Z,71.5
2017-09-23T10:09:05.435Z,68.9
2017-09-23T10:10:06.211Z,71.3
2017-09-23T10:11:06.953Z,71.1
2017-09-23T10:12:07.742Z,70.0
2017-09-23T10:13:08.803Z,68.5
2017-09-23T10:14:09.559Z,70.3
2017-09-23T10:15:10.346Z,69.1
2017-09-23T10:16:11.153Z,69.8
2017-09-23T10:17:11.909Z,71.2
2017-09-23T10:18:12.951Z,67.4
2017-09-23T10:19:13.700Z,69.4
2017-09-23T10:20:14.450Z,70.7
2017-09-23T10:21:15.190Z,67.7
2017-09-23T10:22:15.935Z,72.3
2017-09-23T10:23:16.659Z,71.8
2017-09-23T10:24:17.405Z,68.6
2017-09-23T10:25:18.207Z,68.5
2017-09-23T10:26:19.369Z,67.6
2017-09-23T10:27:20.190Z,67.3
2017-09-23T10:28:20.942Z,66.1
2017-09-23T10:29:21.664Z,66.5
2017-09-23T10:30:22.406Z,65.7
2017-09-23T10:31:23.299Z,64.6
2017-09-23T10:32:24.641Z,66.4
2017-09-23T10:33:25.440Z,64.2
2017-09-23T10:34:26.186Z,64.0
2017-09-23T10:35:26.937Z,66.3
2017-09-23T10:36:27.673Z,66.5
2017-09-23T10:37:28.841Z,66.5
2017-09-23T10:38:29.572Z,66.2
2017-09-23T10:39:30.374Z,67.0
2017-09-23T10:40:31.161Z,64.4
2017-09-23T10:41:31.894Z,67.7
2017-09-23T10:42:32.994Z,66.5
2017-09-23T10:43:33.738Z,66.6
2017-09-23T10:44:34.470Z,67.7
2017-09-23T10:45:35.220Z,67.9
2017-09-23T10:46:35.960Z,69.9
2017-09-23T10:47:37.017Z,68.2
2017-09-23T10:48:37.840Z,69.8
2017-09-23T10:49:38.655Z,70.6
2017-09-23T10:50:39.407Z,69.2
2017-09-23T10:51:40.194Z,71.2
2017-09-23T10:52:41.135Z,74.0
2017-09-23T10:53:41.876Z,73.3
2017-09-23T10:54:42.633Z,69.7
2017-09-23T10:55:43.441Z,70.3
2017-09-23T10:56:44.244Z,68.8
2017-09-23T10:57:44.991Z,72.3
2017-09-23T10:58:45.720Z,70.9
2017-09-23T10:59:46.468Z,71.1
2017-09-23T11:00:47.221Z,69.7
2017-09-23T11:01:48.024Z,71.7
2017-09-23T11:02:49.203Z,66.3
2017-09-23T11:03:49.961Z,69.7
2017-09-23T11:04:50.751Z,66.6
2017-09-23T11:05:52.146Z,65.5
2017-09-23T11:06:52.833Z,67.4
2017-09-23T11:07:53.650Z,64.6
2017-09-23T11:08:54.424Z,64.8
2017-09-23T11:09:55.205Z,66.0
2017-09-23T11:10:56.134Z,64.5
2017-09-23T11:11:57.323Z,66.3
2017-09-23T11:12:58.394Z,66.4
2017-09-23T11:13:59.069Z,67.7
2017-09-23T11:15:00.017Z,64.6
2017-09-23T11:16:00.881Z,66.6
2017-09-23T11:17:01.621Z,66.7
2017-09-23T11:18:02.730Z,64.4
2017-09-23T11:19:03.529Z,65.2
2017-09-23T11:20:04.270Z,65.7
2017-09-23T11:21:05.018Z,66.1
2017-09-23T11:22:05.932Z,61.6
2017-09-23T11:23:06.992Z,63.4
2017-09-23T11:24:07.737Z,61.4
2017-09-23T11:25:08.547Z,60.8
2017-09-23T11:26:09.305Z,66.7
2017-09-23T11:27:10.053Z,63.4
2017-09-23T11:28:11.092Z,63.2
2017-09-23T11:29:11.905Z,64.4
2017-09-23T11:30:12.641Z,64.8
2017-09-23T11:31:13.403Z,64.4
2017-09-23T11:32:14.197Z,64.1
2017-09-23T11:33:15.196Z,66.5
2017-09-23T11:34:15.930Z,64.8
2017-09-23T11:35:16.672Z,66.2
2017-09-23T11:36:17.494Z,65.3
2017-09-23T11:37:18.246Z,65.3
2017-09-23T11:38:19.444Z,66.4
2017-09-23T11:39:20.193Z,63.0
2017-09-23T11:40:20.984Z,62.9
2017-09-23T11:41:21.722Z,62.4
2017-09-23T11:42:22.532Z,61.1
2017-09-23T11:43:23.473Z,60.2
2017-09-23T11:44:24.228Z,61.7
2017-09-23T11:45:25.020Z,58.0
2017-09-23T11:46:25.820Z,59.1
2017-09-23T11:47:26.624Z,56.8
2017-09-23T11:48:27.370Z,59.6
2017-09-23T11:49:28.364Z,60.2
2017-09-23T11:50:29.106Z,61.8
2017-09-23T11:51:29.935Z,58.3
2017-09-23T11:52:30.686Z,59.7
2017-09-23T11:53:31.487Z,61.2
2017-09-23T11:54:32.475Z,59.1
2017-09-23T11:55:33.215Z,61.0
2017-09-23T11:56:33.966Z,60.2
2017-09-23T11:57:34.791Z,62.9
2017-09-23T11:58:35.516Z,61.3
2017-09-23T11:59:36.527Z,61.1
2017-09-23T12:00:37.312Z,59.6
2017-09-23T12:01:38.057Z,64.2
2017-09-23T12:02:38.805Z,63.4
2017-09-23T12:03:39.564Z,64.1
2017-09-23T12:04:40.735Z,62.5
2017-09-23T12:05:41.575Z,62.2
2017-09-23T12:06:42.368Z,62.5
2017-09-23T12:07:43.115Z,63.9
2017-09-23T12:08:43.854Z,63.1
2017-09-23T12:09:44.984Z,64.7
2017-09-23T12:10:45.723Z,63.0
2017-09-23T12:11:46.522Z,61.6
2017-09-23T12:12:47.266Z,61.1
2017-09-23T12:13:48.006Z,60.5
2017-09-23T12:14:49.148Z,62.0
2017-09-23T12:15:49.934Z,64.2
2017-09-23T12:16:50.755Z,63.9
2017-09-23T12:17:51.534Z,64.8
2017-09-23T12:18:52.363Z,65.4
2017-09-23T12:19:53.436Z,64.4
2017-09-23T12:20:54.212Z,65.9
2017-09-23T12:21:55.016Z,64.6
2017-09-23T12:22:55.760Z,64.4
2017-09-23T12:23:56.553Z,66.2
2017-09-23T12:24:57.653Z,64.5
2017-09-23T12:25:58.449Z,66.2
2017-09-23T12:26:59.237Z,68.4
2017-09-23T12:28:00.013Z,67.2
2017-09-23T12:29:00.771Z,65.4
2017-09-23T12:30:01.928Z,67.9
2017-09-23T12:31:02.724Z,65.4
2017-09-23T12:32:03.523Z,66.1
2017-09-23T12:33:04.277Z,67.6
2017-09-23T12:34:05.103Z,66.0
2017-09-23T12:35:05.850Z,65.3
2017-09-23T12:36:06.595Z,67.5
2017-09-23T12:37:07.394Z,64.1
2017-09-23T12:38:08.144Z,66.5
2017-09-23T12:39:09.135Z,66.2
2017-09-23T12:40:09.882Z,68.0
2017-09-23T12:41:10.632Z,68.1
2017-09-23T12:42:11.436Z,63.9
2017-09-23T12:43:12.184Z,66.5
2017-09-23T12:44:12.934Z,64.2
2017-09-23T12:45:13.989Z,65.5
2017-09-23T12:46:14.781Z,62.5
2017-09-23T12:47:15.515Z,61.4
2017-09-23T12:48:16.291Z,60.3
2017-09-23T12:49:17.018Z,57.4
2017-09-23T12:50:18.110Z,62.0
2017-09-23T12:51:18.861Z,57.0
2017-09-23T12:52:19.648Z,58.9
2017-09-23T12:53:20.397Z,57.8
2017-09-23T12:54:21.208Z,57.8
2017-09-23T12:55:22.312Z,56.1
2017-09-23T12:56:23.166Z,58.4
2017-09-23T12:57:23.981Z,58.7
2017-09-23T12:58:24.737Z,61.0
2017-09-23T12:59:25.549Z,58.7
2017-09-23T13:00:26.755Z,56.8
2017-09-23T13:01:27.548Z,57.7
2017-09-23T13:02:28.361Z,61.4
2017-09-23T13:03:29.175Z,60.5
2017-09-23T13:04:29.925Z,62.5
2017-09-23T13:05:31.015Z,59.5
2017-09-23T13:06:31.811Z,62.4
2017-09-23T13:07:32.551Z,59.7
2017-09-23T13:08:33.294Z,62.2
2017-09-23T13:09:34.103Z,61.1
2017-09-23T13:10:35.258Z,61.4
2017-09-23T13:11:36.071Z,58.6
2017-09-23T13:12:36.826Z,61.6